createdAt,value
2022-11-29T00:00:29.553Z,99175.99
2022-11-29T00:03:21.162Z,99177.08
2022-11-29T00:05:53.342Z,99174.22
2022-11-29T00:08:26.206Z,99173.38
2022-11-29T00:10:57.696Z,99171.95
2022-11-29T00:13:29.219Z,99167.77
2022-11-29T00:16:05.154Z,99166.82
2022-11-29T00:18:37.171Z,99165.47
2022-11-29T00:21:10.427Z,99164.69
2022-11-29T00:23:41.953Z,99162.80
2022-11-29T00:26:13.792Z,99167.30
2022-11-29T00:28:45.485Z,99164.60
2022-11-29T00:31:19.667Z,99161.73
2022-11-29T00:33:52.179Z,99164.24
2022-11-29T00:36:23.851Z,99164.29
2022-11-29T00:38:55.665Z,99165.88
2022-11-29T00:41:27.579Z,99166.16
2022-11-29T00:43:59.081Z,99166.95
2022-11-29T00:46:30.600Z,99169.29
2022-11-29T00:49:02.137Z,99172.86
2022-11-29T00:51:33.797Z,99170.47
2022-11-29T00:54:05.920Z,99161.27
2022-11-29T00:56:37.436Z,99163.90
2022-11-29T00:59:10.030Z,99164.30
2022-11-29T01:01:41.709Z,99164.48
2022-11-29T01:04:13.532Z,99160.77
2022-11-29T01:06:45.157Z,99158.64
2022-11-29T01:09:16.728Z,99160.46
2022-11-29T01:11:50.058Z,99162.36
2022-11-29T01:14:21.656Z,99154.33
2022-11-29T01:16:53.218Z,99154.29
2022-11-29T01:19:24.896Z,99149.69
2022-11-29T01:21:56.537Z,99148.05
2022-11-29T01:24:29.701Z,99144.23
2022-11-29T01:27:01.513Z,99143.64
2022-11-29T01:29:33.024Z,99143.23
2022-11-29T01:32:04.837Z,99140.85
2022-11-29T01:34:36.330Z,99141.73
2022-11-29T01:37:08.243Z,99145.15
2022-11-29T01:39:40.461Z,99144.87
2022-11-29T01:42:14.476Z,99138.69
2022-11-29T01:45:05.916Z,99140.57
2022-11-29T01:47:43.065Z,99140.15
2022-11-29T01:50:15.190Z,99134.90
2022-11-29T01:52:47.245Z,99138.70
2022-11-29T01:55:19.606Z,99137.72
2022-11-29T01:57:51.539Z,99143.24
2022-11-29T02:00:24.198Z,99139.12
2022-11-29T02:02:59.919Z,99134.45
2022-11-29T02:05:31.913Z,99138.45
2022-11-29T02:08:04.089Z,99138.67
2022-11-29T02:10:47.960Z,99139.29
2022-11-29T02:13:33.824Z,99143.69
2022-11-29T02:16:13.104Z,99140.85
2022-11-29T02:18:54.869Z,99145.74
2022-11-29T02:21:41.121Z,99146.29
2022-11-29T02:24:51.071Z,99140.23
2022-11-29T02:27:59.422Z,99153.16
2022-11-29T02:31:05.073Z,99154.52
2022-11-29T02:33:57.214Z,99152.38
2022-11-29T02:36:52.195Z,99153.09
2022-11-29T02:39:44.247Z,99145.30
2022-11-29T02:42:54.062Z,99152.65
2022-11-29T02:46:02.883Z,99152.47
2022-11-29T02:48:53.157Z,99157.34
2022-11-29T02:51:32.039Z,99159.23
2022-11-29T02:54:10.034Z,99158.62
2022-11-29T02:56:47.550Z,99160.36
2022-11-29T02:59:35.176Z,99160.71
2022-11-29T03:02:18.572Z,99165.95
2022-11-29T03:04:56.638Z,99164.58
2022-11-29T03:07:41.532Z,99168.53
2022-11-29T03:10:23.825Z,99170.45
2022-11-29T03:12:59.134Z,99171.05
2022-11-29T03:15:34.999Z,99176.02
2022-11-29T03:18:26.079Z,99178.14
2022-11-29T03:21:10.873Z,99180.96
2022-11-29T03:23:48.270Z,99184.56
2022-11-29T03:26:25.426Z,99180.86
2022-11-29T03:29:07.240Z,99184.73
2022-11-29T03:31:45.637Z,99181.66
2022-11-29T03:34:26.520Z,99186.46
2022-11-29T03:37:03.685Z,99188.42
2022-11-29T03:39:46.340Z,99191.23
2022-11-29T03:42:25.609Z,99189.23
2022-11-29T03:45:04.299Z,99191.19
2022-11-29T03:47:43.132Z,99189.50
2022-11-29T03:50:20.159Z,99188.61
2022-11-29T03:52:55.991Z,99189.69
2022-11-29T03:55:49.883Z,99192.54
2022-11-29T03:58:48.093Z,99191.75
2022-11-29T04:01:38.743Z,99192.77
2022-11-29T04:04:52.233Z,99193.84
2022-11-29T04:07:45.311Z,99196.84
2022-11-29T04:10:42.207Z,99196.95
2022-11-29T04:13:35.538Z,99200.70
2022-11-29T04:16:27.642Z,99201.77
2022-11-29T04:19:25.513Z,99207.04
2022-11-29T04:22:20.473Z,99205.94
2022-11-29T04:25:30.183Z,99209.36
2022-11-29T04:28:28.716Z,99209.39
2022-11-29T04:31:11.536Z,99213.45
2022-11-29T04:37:27.248Z,99216.46
2022-11-29T04:40:27.288Z,99223.54
2022-11-29T04:43:23.589Z,99226.39
2022-11-29T04:46:12.406Z,99223.89
2022-11-29T04:49:03.059Z,99231.70
2022-11-29T04:51:48.057Z,99228.45
2022-11-29T04:54:28.161Z,99225.70
2022-11-29T04:57:08.424Z,99227.52
2022-11-29T04:59:45.196Z,99226.69
2022-11-29T05:02:33.444Z,99230.55
2022-11-29T05:05:15.248Z,99231.88
2022-11-29T05:07:59.387Z,99236.57
2022-11-29T05:10:36.210Z,99236.59
2022-11-29T05:13:14.273Z,99240.99
2022-11-29T05:16:03.821Z,99247.30
2022-11-29T05:19:00.260Z,99246.54
2022-11-29T05:21:43.855Z,99247.12
2022-11-29T05:24:28.833Z,99252.83
2022-11-29T05:27:09.910Z,99253.52
2022-11-29T05:29:49.089Z,99256.74
2022-11-29T05:32:32.967Z,99258.16
2022-11-29T05:35:30.472Z,99262.14
2022-11-29T05:38:09.965Z,99267.71
2022-11-29T05:40:58.792Z,99272.77
2022-11-29T05:43:57.105Z,99273.64
2022-11-29T05:46:37.246Z,99270.05
2022-11-29T05:49:23.052Z,99272.86
2022-11-29T05:52:04.460Z,99278.30
2022-11-29T05:54:42.569Z,99279.54
2022-11-29T05:57:26.001Z,99281.76
2022-11-29T06:00:00.333Z,99283.31
2022-11-29T06:02:44.449Z,99284.92
2022-11-29T06:05:25.542Z,99285.56
2022-11-29T06:08:04.732Z,99289.55
2022-11-29T06:10:39.978Z,99296.27
2022-11-29T06:13:23.096Z,99303.13
2022-11-29T06:16:25.045Z,99305.60
2022-11-29T06:19:41.604Z,99307.89
2022-11-29T06:22:30.403Z,99304.79
2022-11-29T06:25:20.458Z,99310.39
2022-11-29T06:28:10.075Z,99311.83
2022-11-29T06:30:59.363Z,99315.64
2022-11-29T06:33:40.815Z,99313.67
2022-11-29T06:36:19.864Z,99310.11
2022-11-29T06:38:52.277Z,99310.33
2022-11-29T06:41:26.329Z,99312.32
2022-11-29T06:43:59.349Z,99314.31
2022-11-29T06:46:44.931Z,99317.86
2022-11-29T06:49:25.090Z,99321.98
2022-11-29T06:52:09.532Z,99328.16
2022-11-29T06:55:11.605Z,99328.77
2022-11-29T06:58:01.983Z,99328.98
2022-11-29T07:00:44.561Z,99330.96
2022-11-29T07:03:30.794Z,99328.58
2022-11-29T07:06:17.143Z,99327.29
2022-11-29T07:08:50.168Z,99321.48
2022-11-29T07:11:23.324Z,99321.90
2022-11-29T07:13:56.226Z,99326.72
2022-11-29T07:16:33.040Z,99330.18
2022-11-29T07:19:14.131Z,99328.19
2022-11-29T07:22:04.219Z,99331.92
2022-11-29T07:24:54.732Z,99337.16
2022-11-29T07:27:33.789Z,99341.89
2022-11-29T07:30:13.788Z,99341.36
2022-11-29T07:33:00.261Z,99340.16
2022-11-29T07:35:42.512Z,99341.02
2022-11-29T07:38:25.018Z,99345.07
2022-11-29T07:41:01.997Z,99346.19
2022-11-29T07:43:46.487Z,99351.45
2022-11-29T07:46:18.035Z,99352.67
2022-11-29T07:48:49.614Z,99349.92
2022-11-29T07:51:21.212Z,99356.73
2022-11-29T07:53:52.742Z,99353.94
2022-11-29T07:56:24.330Z,99351.99
2022-11-29T07:58:55.873Z,99345.86
2022-11-29T08:01:27.649Z,99352.36
2022-11-29T08:03:59.399Z,99352.09
2022-11-29T08:06:31.337Z,99351.40
2022-11-29T08:09:03.672Z,99354.58
2022-11-29T08:11:35.317Z,99353.83
2022-11-29T08:14:06.964Z,99351.63
2022-11-29T08:16:38.683Z,99357.72
2022-11-29T08:19:10.692Z,99343.58
2022-11-29T08:21:43.720Z,99340.53
2022-11-29T08:24:15.411Z,99342.02
2022-11-29T08:26:47.390Z,99341.05
2022-11-29T08:29:19.972Z,99342.77
2022-11-29T08:31:54.677Z,99345.17
2022-11-29T08:34:27.154Z,99342.42
2022-11-29T08:36:58.754Z,99344.77
2022-11-29T08:39:30.491Z,99347.52
2022-11-29T08:42:02.139Z,99351.19
2022-11-29T08:44:33.708Z,99346.52
2022-11-29T08:47:23.065Z,99343.68
2022-11-29T08:50:04.041Z,99349.33
2022-11-29T08:52:55.193Z,99352.05
2022-11-29T08:55:29.620Z,99349.24
2022-11-29T08:58:05.881Z,99347.59
2022-11-29T09:00:38.705Z,99344.92
2022-11-29T09:03:28.459Z,99340.45
2022-11-29T09:06:00.444Z,99345.39
2022-11-29T09:08:31.999Z,99343.58
2022-11-29T09:11:14.326Z,99341.84
2022-11-29T09:13:50.206Z,99349.27
2022-11-29T09:16:25.191Z,99344.81
2022-11-29T09:18:57.514Z,99346.84
2022-11-29T09:21:30.962Z,99351.04
2022-11-29T09:24:06.361Z,99350.09
2022-11-29T09:26:40.767Z,99353.77
2022-11-29T09:29:14.233Z,99349.72
2022-11-29T09:31:46.197Z,99354.59
2022-11-29T09:34:19.414Z,99354.45
2022-11-29T09:36:50.986Z,99356.23
2022-11-29T09:39:23.165Z,99356.23
2022-11-29T09:42:10.023Z,99351.30
2022-11-29T09:44:52.241Z,99348.26
2022-11-29T09:47:39.562Z,99351.92
2022-11-29T09:50:29.978Z,99348.54
2022-11-29T09:53:26.089Z,99349.20
2022-11-29T09:56:06.033Z,99345.42
2022-11-29T09:58:44.765Z,99343.95
2022-11-29T10:01:26.035Z,99341.09
2022-11-29T10:04:01.938Z,99341.27
2022-11-29T10:06:39.296Z,99343.48
2022-11-29T10:09:22.088Z,99340.82
2022-11-29T10:12:06.973Z,99334.86
2022-11-29T10:14:43.886Z,99325.45
2022-11-29T10:17:26.177Z,99334.89
2022-11-29T10:20:04.312Z,99335.52
2022-11-29T10:22:44.916Z,99335.85
2022-11-29T10:25:24.280Z,99334.47
2022-11-29T10:27:56.772Z,99333.97
2022-11-29T10:30:28.543Z,99328.05
2022-11-29T10:33:02.752Z,99326.74
2022-11-29T10:35:35.744Z,99323.85
2022-11-29T10:38:29.830Z,99321.22
2022-11-29T10:41:05.870Z,99316.61
2022-11-29T10:43:38.618Z,99319.23
2022-11-29T10:46:19.350Z,99315.40
2022-11-29T10:48:51.082Z,99319.50
2022-11-29T10:51:22.952Z,99318.85
2022-11-29T10:53:55.689Z,99317.48
2022-11-29T10:56:35.454Z,99317.11
2022-11-29T10:59:12.038Z,99313.48
2022-11-29T11:01:45.132Z,99309.10
2022-11-29T11:04:25.941Z,99310.09
2022-11-29T11:07:01.252Z,99308.48
2022-11-29T11:09:36.783Z,99307.27
2022-11-29T11:12:20.411Z,99312.75
2022-11-29T11:14:52.155Z,99309.48
2022-11-29T11:17:27.201Z,99306.30
2022-11-29T11:20:02.069Z,99308.98
2022-11-29T11:22:36.360Z,99309.38
2022-11-29T11:25:25.363Z,99306.20
2022-11-29T11:27:58.723Z,99308.60
2022-11-29T11:30:31.375Z,99310.06
2022-11-29T11:33:20.528Z,99310.94
2022-11-29T11:36:13.244Z,99310.73
2022-11-29T11:38:53.723Z,99316.55
2022-11-29T11:41:42.324Z,99313.65
2022-11-29T11:44:46.581Z,99316.58
2022-11-29T11:47:21.979Z,99316.16
2022-11-29T11:50:08.038Z,99308.29
2022-11-29T11:52:50.389Z,99309.62
2022-11-29T11:55:33.601Z,99310.52
2022-11-29T11:58:16.282Z,99316.27
2022-11-29T12:01:06.758Z,99313.67
2022-11-29T12:04:01.554Z,99312.27
2022-11-29T12:06:41.483Z,99313.94
2022-11-29T12:09:24.368Z,99314.98
2022-11-29T12:12:07.197Z,99312.79
2022-11-29T12:14:47.405Z,99312.80
2022-11-29T12:17:27.789Z,99322.67
2022-11-29T12:20:11.576Z,99322.32
2022-11-29T12:22:48.733Z,99326.11
2022-11-29T12:25:26.118Z,99323.79
2022-11-29T12:27:57.666Z,99325.70
2022-11-29T12:30:29.408Z,99327.89
2022-11-29T12:33:26.271Z,99326.95
2022-11-29T12:36:14.934Z,99328.36
2022-11-29T12:39:04.380Z,99326.13
2022-11-29T12:41:50.941Z,99322.83
2022-11-29T12:44:44.567Z,99327.88
2022-11-29T12:47:41.650Z,99327.33
2022-11-29T12:50:34.389Z,99322.36
2022-11-29T12:53:27.108Z,99324.50
2022-11-29T12:56:08.378Z,99326.42
2022-11-29T12:58:53.234Z,99328.17
2022-11-29T13:01:31.624Z,99330.59
2022-11-29T13:04:14.852Z,99333.40
2022-11-29T13:06:56.695Z,99330.63
2022-11-29T13:09:53.825Z,99336.69
2022-11-29T13:12:35.011Z,99338.67
2022-11-29T13:15:12.946Z,99339.09
2022-11-29T13:17:50.769Z,99342.15
2022-11-29T13:20:37.285Z,99344.56
2022-11-29T13:23:18.345Z,99348.63
2022-11-29T13:25:52.377Z,99347.20
2022-11-29T13:28:27.755Z,99349.41
2022-11-29T13:31:03.525Z,99348.87
2022-11-29T13:33:43.617Z,99351.86
2022-11-29T13:36:22.837Z,99348.25
2022-11-29T13:39:06.608Z,99351.41
2022-11-29T13:41:47.665Z,99349.06
2022-11-29T13:44:27.341Z,99349.95
2022-11-29T13:47:07.323Z,99351.85
2022-11-29T13:49:57.180Z,99348.80
2022-11-29T13:52:39.388Z,99350.46
2022-11-29T13:55:29.051Z,99353.62
2022-11-29T13:58:17.489Z,99350.04
2022-11-29T14:00:53.550Z,99351.42
2022-11-29T14:03:35.536Z,99348.36
2022-11-29T14:06:11.875Z,99345.27
2022-11-29T14:09:24.493Z,99353.46
2022-11-29T14:12:04.167Z,99352.06
2022-11-29T14:14:42.886Z,99354.27
2022-11-29T14:17:35.004Z,99360.40
2022-11-29T14:20:41.172Z,99356.73
2022-11-29T14:23:31.582Z,99359.00
2022-11-29T14:26:29.988Z,99360.52
2022-11-29T14:29:01.916Z,99363.21
2022-11-29T14:31:56.456Z,99366.09
2022-11-29T14:34:48.103Z,99368.94
2022-11-29T14:37:35.787Z,99371.02
2022-11-29T14:40:22.371Z,99371.31
2022-11-29T14:42:54.829Z,99371.34
2022-11-29T14:45:30.437Z,99377.27
2022-11-29T14:48:02.884Z,99378.98
2022-11-29T14:50:40.609Z,99380.23
2022-11-29T14:53:31.291Z,99383.15
2022-11-29T14:56:35.056Z,99385.42
2022-11-29T14:59:53.101Z,99389.01
2022-11-29T15:02:32.395Z,99390.08
2022-11-29T15:05:17.011Z,99389.33
2022-11-29T15:07:52.560Z,99394.65
2022-11-29T15:10:30.790Z,99392.56
2022-11-29T15:13:05.032Z,99396.68
2022-11-29T15:15:54.146Z,99400.15
2022-11-29T15:18:41.673Z,99407.21
2022-11-29T15:21:27.807Z,99416.69
2022-11-29T15:24:10.593Z,99416.38
2022-11-29T15:26:55.271Z,99416.14
2022-11-29T15:29:27.789Z,99425.08
2022-11-29T15:32:02.817Z,99426.48
2022-11-29T15:34:40.185Z,99428.52
2022-11-29T15:37:22.010Z,99426.96
2022-11-29T15:40:06.448Z,99429.56
2022-11-29T15:42:47.283Z,99428.46
2022-11-29T15:45:32.329Z,99428.39
2022-11-29T15:48:20.599Z,99426.31
2022-11-29T15:51:01.741Z,99429.48
2022-11-29T15:53:39.073Z,99436.46
2022-11-29T15:56:17.742Z,99440.61
2022-11-29T15:58:51.418Z,99447.70
2022-11-29T16:01:22.301Z,99449.01
2022-11-29T16:03:56.685Z,99451.52
2022-11-29T16:06:33.233Z,99454.82
2022-11-29T16:09:07.179Z,99456.35
2022-11-29T16:11:40.388Z,99459.58
2022-11-29T16:14:23.179Z,99458.36
2022-11-29T16:16:56.366Z,99457.41
2022-11-29T16:19:35.551Z,99462.36
2022-11-29T16:22:15.392Z,99462.28
2022-11-29T16:25:01.009Z,99461.09
2022-11-29T16:27:35.335Z,99464.55
2022-11-29T16:30:18.064Z,99467.17
2022-11-29T16:32:55.022Z,99466.73
2022-11-29T16:35:30.070Z,99466.77
2022-11-29T16:38:04.248Z,99471.48
2022-11-29T16:40:37.288Z,99472.45
2022-11-29T16:43:24.016Z,99482.00
2022-11-29T16:46:30.157Z,99482.21
2022-11-29T16:49:04.677Z,99488.66
2022-11-29T16:51:43.940Z,99488.78
2022-11-29T16:54:25.094Z,99494.41
2022-11-29T16:56:59.046Z,99497.61
2022-11-29T16:59:32.046Z,99497.89
2022-11-29T17:02:03.664Z,99498.41
2022-11-29T17:04:35.404Z,99496.32
2022-11-29T17:07:09.368Z,99497.54
2022-11-29T17:09:41.364Z,99498.60
2022-11-29T17:12:14.638Z,99503.66
2022-11-29T17:14:46.360Z,99509.64
2022-11-29T17:17:19.303Z,99506.04
2022-11-29T17:19:50.840Z,99508.74
2022-11-29T17:22:22.394Z,99505.64
2022-11-29T17:24:54.511Z,99512.15
2022-11-29T17:27:26.294Z,99511.71
2022-11-29T17:29:57.929Z,99514.48
2022-11-29T17:32:29.556Z,99511.39
2022-11-29T17:35:01.057Z,99511.33
2022-11-29T17:37:32.987Z,99508.45
2022-11-29T17:40:07.126Z,99510.67
2022-11-29T17:42:39.485Z,99508.02
2022-11-29T17:45:12.552Z,99510.63
2022-11-29T17:47:44.204Z,99511.05
2022-11-29T17:50:16.012Z,99507.04
2022-11-29T17:52:47.590Z,99511.14
2022-11-29T17:55:20.786Z,99515.80
2022-11-29T17:57:52.813Z,99516.95
2022-11-29T18:00:27.018Z,99515.58
2022-11-29T18:02:58.553Z,99518.50
2022-11-29T18:05:34.527Z,99519.30
2022-11-29T18:08:06.873Z,99523.23
2022-11-29T18:10:38.422Z,99530.13
2022-11-29T18:13:10.003Z,99529.44
2022-11-29T18:15:41.489Z,99526.82
2022-11-29T18:18:13.259Z,99529.66
2022-11-29T18:20:44.795Z,99522.09
2022-11-29T18:23:16.397Z,99523.05
2022-11-29T18:25:57.617Z,99520.11
2022-11-29T18:28:30.830Z,99525.95
2022-11-29T18:31:06.912Z,99527.09
2022-11-29T18:33:39.196Z,99525.58
2022-11-29T18:36:13.723Z,99529.86
2022-11-29T18:38:46.946Z,99525.28
2022-11-29T18:41:21.280Z,99526.08
2022-11-29T18:43:59.027Z,99525.70
2022-11-29T18:46:32.700Z,99526.46
2022-11-29T18:49:07.049Z,99528.35
2022-11-29T18:51:39.919Z,99526.65
2022-11-29T18:54:11.648Z,99533.03
2022-11-29T18:56:44.224Z,99534.82
2022-11-29T18:59:17.904Z,99536.30
2022-11-29T19:01:50.273Z,99532.59
2022-11-29T19:04:22.822Z,99533.74
2022-11-29T19:06:54.426Z,99532.92
2022-11-29T19:09:26.093Z,99538.10
2022-11-29T19:11:57.610Z,99538.23
2022-11-29T19:14:30.461Z,99546.05
2022-11-29T19:17:02.327Z,99545.52
2022-11-29T19:19:33.937Z,99545.70
2022-11-29T19:22:05.473Z,99546.04
2022-11-29T19:24:37.181Z,99544.86
2022-11-29T19:27:08.718Z,99542.30
2022-11-29T19:29:40.231Z,99540.86
2022-11-29T19:32:11.793Z,99539.00
2022-11-29T19:34:43.398Z,99540.66
2022-11-29T19:37:14.888Z,99545.90
2022-11-29T19:39:46.627Z,99544.36
2022-11-29T19:42:18.446Z,99541.23
2022-11-29T19:47:41.822Z,99551.41
2022-11-29T19:50:13.797Z,99556.39
2022-11-29T19:52:45.342Z,99559.61
2022-11-29T19:55:18.093Z,99559.91
2022-11-29T19:57:49.757Z,99564.05
2022-11-29T20:00:22.987Z,99571.31
2022-11-29T20:02:54.757Z,99568.46
2022-11-29T20:05:27.332Z,99570.30
2022-11-29T20:07:59.035Z,99563.95
2022-11-29T20:10:30.848Z,99561.03
2022-11-29T20:13:02.481Z,99568.32
2022-11-29T20:15:34.209Z,99574.55
2022-11-29T20:18:06.810Z,99575.10
2022-11-29T20:20:38.356Z,99577.46
2022-11-29T20:23:09.857Z,99575.70
2022-11-29T20:25:41.360Z,99575.41
2022-11-29T20:28:12.898Z,99581.22
2022-11-29T20:30:46.494Z,99582.95
2022-11-29T20:33:22.087Z,99583.41
2022-11-29T20:36:00.642Z,99582.40
2022-11-29T20:38:42.425Z,99577.52
2022-11-29T20:41:20.520Z,99574.52
2022-11-29T20:43:57.510Z,99576.23
2022-11-29T20:46:29.995Z,99575.60
2022-11-29T20:49:06.777Z,99573.27
2022-11-29T20:51:44.944Z,99572.38
2022-11-29T20:54:17.177Z,99569.92
2022-11-29T20:56:48.986Z,99577.42
2022-11-29T20:59:24.660Z,99580.30
2022-11-29T21:01:57.596Z,99578.02
2022-11-29T21:04:29.232Z,99579.61
2022-11-29T21:07:00.845Z,99577.77
2022-11-29T21:09:32.339Z,99576.15
2022-11-29T21:12:05.071Z,99582.13
2022-11-29T21:14:37.886Z,99579.10
2022-11-29T21:17:11.436Z,99588.64
2022-11-29T21:19:42.256Z,99587.16
2022-11-29T21:22:21.813Z,99588.13
2022-11-29T21:25:04.470Z,99593.98
2022-11-29T21:27:37.520Z,99597.65
2022-11-29T21:30:17.860Z,99591.42
2022-11-29T21:32:50.743Z,99587.83
2022-11-29T21:35:22.295Z,99587.85
2022-11-29T21:37:55.547Z,99592.87
2022-11-29T21:40:27.079Z,99593.37
2022-11-29T21:42:58.880Z,99591.73
2022-11-29T21:45:30.688Z,99593.48
2022-11-29T21:48:03.442Z,99593.08
2022-11-29T21:50:34.909Z,99596.04
2022-11-29T21:53:06.374Z,99594.89
2022-11-29T21:55:37.898Z,99591.73
2022-11-29T21:58:09.417Z,99593.98
2022-11-29T22:00:40.941Z,99594.77
2022-11-29T22:03:12.428Z,99596.94
2022-11-29T22:05:43.914Z,99600.50
2022-11-29T22:08:15.427Z,99603.20
2022-11-29T22:10:48.080Z,99601.47
2022-11-29T22:13:19.651Z,99597.42
2022-11-29T22:15:51.264Z,99596.33
2022-11-29T22:18:27.024Z,99597.45
2022-11-29T22:21:01.989Z,99597.79
2022-11-29T22:23:34.128Z,99594.30
2022-11-29T22:26:08.121Z,99595.80
2022-11-29T22:28:39.662Z,99595.14
2022-11-29T22:31:13.372Z,99591.66
2022-11-29T22:33:44.937Z,99589.96
2022-11-29T22:36:16.549Z,99589.63
2022-11-29T22:38:48.060Z,99587.27
2022-11-29T22:41:19.924Z,99589.52
2022-11-29T22:43:51.446Z,99585.66
2022-11-29T22:46:24.749Z,99584.77
2022-11-29T22:48:58.372Z,99586.67
2022-11-29T22:51:31.503Z,99583.84
2022-11-29T22:54:05.465Z,99585.16
2022-11-29T22:56:39.642Z,99585.05
2022-11-29T22:59:11.692Z,99589.02
2022-11-29T23:01:44.942Z,99586.11
2022-11-29T23:04:16.466Z,99591.73
2022-11-29T23:06:48.540Z,99590.81
2022-11-29T23:09:22.393Z,99589.97
2022-11-29T23:11:56.223Z,99594.55
2022-11-29T23:14:28.031Z,99598.25
2022-11-29T23:16:59.584Z,99597.08
2022-11-29T23:19:31.152Z,99599.12
2022-11-29T23:22:02.661Z,99602.61
2022-11-29T23:24:34.169Z,99601.04
2022-11-29T23:27:05.772Z,99596.92
2022-11-29T23:29:37.301Z,99593.81
2022-11-29T23:32:08.858Z,99597.09
2022-11-29T23:34:40.411Z,99599.89
2022-11-29T23:37:11.934Z,99604.86
2022-11-29T23:39:43.429Z,99604.45
2022-11-29T23:42:14.910Z,99610.51
2022-11-29T23:44:46.591Z,99608.14
2022-11-29T23:47:18.598Z,99603.63
2022-11-29T23:49:50.125Z,99603.70
2022-11-29T23:52:21.689Z,99601.39
2022-11-29T23:54:53.160Z,99605.78
2022-11-29T23:57:24.692Z,99611.36
2022-11-29T23:59:56.213Z,99610.15
